Time;durP1;ratioP1;P1;durP2;ratioP2;P2;SDS_P1;SDS_P2;PMS_P1;PMS_P2;Temp;Humidity;BMP_temperature;BMP_pressure;BME280_temperature;BME280_humidity;BME280_pressure;Samples;Min_cycle;Max_cycle;Signal;HPM_P1;HPM_P2
2020/12/22 00:03:50;;;;;;;2.53;2.43;;;10.60;99.90;;;;;;10179083;29;20214;-78
2020/12/22 00:08:52;;;;;;;2.80;2.60;;;10.70;99.90;;;;;;10178869;29;20196;-82
2020/12/22 00:13:54;;;;;;;2.87;2.67;;;10.70;99.90;;;;;;10199274;29;20240;-80
2020/12/22 00:18:56;;;;;;;2.20;2.10;;;10.70;99.90;;;;;;10180460;29;20202;-80
2020/12/22 00:23:58;;;;;;;3.67;2.80;;;10.80;99.90;;;;;;10178545;29;20229;-82
2020/12/22 00:29:00;;;;;;;2.23;2.13;;;10.80;99.90;;;;;;10184458;29;20284;-79
2020/12/22 00:34:03;;;;;;;2.77;2.57;;;10.80;99.90;;;;;;10173845;29;20249;-82
2020/12/22 00:39:07;;;;;;;2.33;2.20;;;10.80;99.90;;;;;;10187904;29;20202;-82
2020/12/22 00:44:08;;;;;;;2.00;1.90;;;10.80;99.90;;;;;;10163258;29;20346;-82
2020/12/22 00:49:11;;;;;;;1.93;1.83;;;10.90;99.90;;;;;;10180806;29;20198;-82
2020/12/22 00:54:13;;;;;;;2.00;1.90;;;10.90;99.90;;;;;;10185197;29;20289;-82
2020/12/22 00:59:14;;;;;;;1.80;1.70;;;11.00;99.90;;;;;;10201075;29;20241;-81
2020/12/22 01:04:17;;;;;;;1.70;1.60;;;11.10;99.90;;;;;;10198929;29;20225;-82
2020/12/22 01:09:18;;;;;;;2.00;1.80;;;11.10;99.90;;;;;;10200459;29;20231;-82
2020/12/22 01:14:20;;;;;;;1.63;1.53;;;11.10;99.90;;;;;;10223417;29;20223;-82
2020/12/22 01:19:23;;;;;;;1.50;1.40;;;11.30;99.90;;;;;;10211525;29;20205;-82
2020/12/22 01:24:25;;;;;;;1.80;1.70;;;11.40;99.90;;;;;;10187372;29;20253;-82
2020/12/22 01:29:27;;;;;;;1.60;1.50;;;11.40;99.90;;;;;;10216756;29;20526;-82
2020/12/22 01:34:29;;;;;;;1.27;1.20;;;11.50;99.90;;;;;;10202865;29;20276;-81
2020/12/22 01:39:31;;;;;;;1.30;1.30;;;11.60;99.90;;;;;;10201436;29;20197;-81
2020/12/22 01:44:33;;;;;;;1.20;1.17;;;11.60;99.90;;;;;;10200998;29;20225;-81
2020/12/22 01:49:36;;;;;;;1.03;1.03;;;11.50;99.90;;;;;;10183632;29;20193;-81
2020/12/22 01:54:38;;;;;;;1.23;1.13;;;11.50;99.90;;;;;;10185027;29;20213;-81
2020/12/22 01:59:40;;;;;;;1.20;1.20;;;11.60;99.90;;;;;;10202191;29;20264;-82
2020/12/22 02:04:42;;;;;;;1.33;0.90;;;11.60;99.90;;;;;;10210115;29;20751;-80
2020/12/22 02:09:46;;;;;;;0.90;0.90;;;11.60;99.90;;;;;;10198158;29;20261;-82
2020/12/22 02:14:48;;;;;;;1.53;0.90;;;11.70;99.90;;;;;;10193710;29;20220;-82
2020/12/22 02:19:50;;;;;;;1.33;1.00;;;11.70;99.90;;;;;;10207009;29;20205;-81
2020/12/22 02:24:53;;;;;;;0.83;0.83;;;11.80;99.90;;;;;;10219649;29;20217;-80
2020/12/22 02:29:54;;;;;;;0.70;0.70;;;11.80;99.90;;;;;;10221130;29;20290;-82
2020/12/22 02:34:56;;;;;;;0.80;0.80;;;11.80;99.90;;;;;;10199296;29;20221;-82
2020/12/22 02:39:58;;;;;;;0.70;0.70;;;11.80;99.90;;;;;;10183628;29;20334;-81
2020/12/22 02:45:00;;;;;;;1.23;0.83;;;11.90;99.90;;;;;;10147775;29;20234;-81
2020/12/22 02:50:02;;;;;;;0.60;0.60;;;11.90;99.90;;;;;;10149325;29;20209;-81
2020/12/22 02:55:04;;;;;;;0.70;0.70;;;11.90;99.90;;;;;;10166326;29;20249;-82
2020/12/22 03:00:06;;;;;;;1.20;0.80;;;11.90;99.90;;;;;;10177374;29;20202;-81
2020/12/22 03:05:07;;;;;;;0.70;0.70;;;12.00;99.90;;;;;;10166306;29;20233;-82
2020/12/22 03:10:12;;;;;;;1.23;0.80;;;11.90;99.90;;;;;;10163349;29;20202;-82
2020/12/22 03:15:14;;;;;;;0.90;0.90;;;12.00;99.90;;;;;;10165682;29;20214;-80
2020/12/22 03:20:16;;;;;;;0.80;0.80;;;12.00;99.90;;;;;;10162869;29;20783;-81
2020/12/22 03:25:18;;;;;;;0.80;0.80;;;12.00;99.90;;;;;;10147848;29;20273;-82
2020/12/22 03:30:20;;;;;;;0.80;0.80;;;12.10;99.90;;;;;;10164917;29;20277;-82
2020/12/22 03:35:22;;;;;;;1.37;0.97;;;12.10;99.90;;;;;;10205816;29;20291;-82
2020/12/22 03:40:26;;;;;;;0.70;0.70;;;12.20;99.90;;;;;;10205083;29;20640;-82
2020/12/22 03:45:28;;;;;;;0.70;0.70;;;12.10;99.90;;;;;;10202896;29;20249;-81
2020/12/22 03:50:29;;;;;;;0.80;0.80;;;12.10;99.90;;;;;;10204733;29;20232;-82
2020/12/22 03:55:32;;;;;;;0.70;0.70;;;12.10;99.90;;;;;;10205833;29;20209;-82
2020/12/22 04:00:33;;;;;;;0.70;0.70;;;12.10;99.90;;;;;;10205829;29;20189;-82
2020/12/22 04:05:35;;;;;;;1.27;0.80;;;12.10;99.90;;;;;;10181239;29;20272;-82
2020/12/22 04:10:38;;;;;;;0.60;0.60;;;12.10;99.90;;;;;;10167595;29;20278;-82
2020/12/22 04:15:39;;;;;;;0.80;0.70;;;12.10;99.90;;;;;;10182393;29;20274;-82
2020/12/22 04:20:41;;;;;;;0.70;0.70;;;12.10;99.90;;;;;;10166686;29;20214;-81
2020/12/22 04:25:43;;;;;;;0.80;0.80;;;12.10;99.90;;;;;;10245814;23;20295;-81
2020/12/22 04:30:45;;;;;;;1.17;0.90;;;12.20;99.90;;;;;;10285073;28;20259;-80
2020/12/22 04:35:47;;;;;;;0.80;0.80;;;12.20;99.90;;;;;;10297524;28;20226;-79
2020/12/22 04:40:49;;;;;;;0.77;0.77;;;12.30;99.90;;;;;;10295061;28;20646;-81
2020/12/22 04:45:51;;;;;;;0.87;0.83;;;12.30;99.90;;;;;;10293910;28;20621;-79
2020/12/22 04:50:53;;;;;;;0.93;0.93;;;12.30;99.90;;;;;;10294156;28;20188;-79
2020/12/22 04:55:56;;;;;;;1.20;1.10;;;12.30;99.90;;;;;;10294013;28;20572;-81
2020/12/22 05:00:59;;;;;;;0.70;0.70;;;12.40;99.90;;;;;;10293998;28;20184;-80
2020/12/22 05:06:01;;;;;;;0.77;0.77;;;12.40;99.90;;;;;;10278090;28;20219;-81
2020/12/22 05:11:04;;;;;;;0.63;0.63;;;12.40;99.90;;;;;;10295909;28;20184;-80
2020/12/22 05:16:05;;;;;;;0.70;0.70;;;12.40;99.90;;;;;;10293451;28;20219;-80
2020/12/22 05:21:07;;;;;;;0.80;0.80;;;12.40;99.90;;;;;;10294603;28;20183;-80
2020/12/22 05:26:11;;;;;;;0.80;0.80;;;12.50;99.90;;;;;;10292225;28;20303;-78
2020/12/22 05:31:14;;;;;;;0.70;0.70;;;12.50;99.90;;;;;;10291871;28;20191;-78
2020/12/22 05:36:16;;;;;;;0.60;0.60;;;12.40;99.90;;;;;;10274641;28;20224;-80
2020/12/22 05:41:19;;;;;;;0.90;0.90;;;12.50;99.90;;;;;;10292085;28;20736;-80
2020/12/22 05:46:27;;;;;;;0.90;0.80;;;12.40;99.90;;;;;;10297812;28;20734;-79
2020/12/22 05:51:30;;;;;;;0.70;0.70;;;12.50;99.90;;;;;;10301174;28;20180;-80
2020/12/22 05:56:34;;;;;;;0.70;0.67;;;12.50;99.90;;;;;;10283028;28;20228;-80
2020/12/22 06:01:35;;;;;;;0.63;0.63;;;12.50;99.90;;;;;;10300817;28;20601;-79
2020/12/22 06:06:37;;;;;;;1.23;0.73;;;12.50;99.90;;;;;;10300296;28;20220;-80
2020/12/22 06:11:40;;;;;;;0.70;0.70;;;12.60;99.90;;;;;;10302943;28;20271;-80
2020/12/22 06:16:41;;;;;;;0.90;0.63;;;12.60;99.90;;;;;;10282917;28;20212;-80
2020/12/22 06:21:43;;;;;;;0.70;0.70;;;12.60;99.90;;;;;;10299474;28;20295;-82
2020/12/22 06:26:46;;;;;;;0.90;0.90;;;12.60;99.90;;;;;;10299056;28;20311;-80
2020/12/22 06:31:47;;;;;;;0.70;0.70;;;12.70;99.90;;;;;;10298920;28;20259;-79
2020/12/22 06:36:57;;;;;;;0.90;0.80;;;12.80;99.90;;;;;;10299136;28;20614;-80
2020/12/22 06:41:59;;;;;;;1.90;0.83;;;12.80;99.90;;;;;;10299038;28;20339;-80
2020/12/22 06:47:03;;;;;;;0.97;0.97;;;12.80;99.90;;;;;;10281741;28;20219;-79
2020/12/22 06:52:26;;;;;;;0.77;0.77;;;12.80;99.90;;;;;;10281104;28;20196;-78
2020/12/22 06:57:46;;;;;;;1.27;1.17;;;12.80;99.90;;;;;;10264748;28;20331;-79
2020/12/22 07:02:49;;;;;;;0.60;0.60;;;12.90;99.90;;;;;;10297046;28;20239;-80
2020/12/22 07:07:58;;;;;;;0.90;0.90;;;12.90;99.90;;;;;;10281007;28;20216;-81
2020/12/22 07:13:00;;;;;;;0.90;0.90;;;13.00;99.90;;;;;;10299469;28;20212;-79
2020/12/22 07:18:13;;;;;;;2.23;1.10;;;13.00;99.90;;;;;;10299301;28;20188;-79
2020/12/22 07:23:15;;;;;;;0.90;0.90;;;12.90;99.90;;;;;;10265431;28;20239;-80
2020/12/22 07:28:19;;;;;;;2.53;0.97;;;12.90;99.90;;;;;;10297119;28;20224;-80
2020/12/22 07:33:20;;;;;;;0.80;0.80;;;12.90;99.90;;;;;;10285029;28;20216;-79
2020/12/22 07:38:22;;;;;;;0.80;0.80;;;13.00;99.90;;;;;;10286790;28;20196;-79
2020/12/22 07:43:25;;;;;;;0.80;0.80;;;13.00;99.90;;;;;;10291595;28;20216;-79
2020/12/22 07:48:26;;;;;;;0.80;0.80;;;13.10;99.90;;;;;;10263824;29;20832;-78
2020/12/22 07:53:28;;;;;;;0.60;0.60;;;13.10;99.90;;;;;;10253766;29;20220;-78
2020/12/22 07:58:32;;;;;;;1.43;1.33;;;13.20;99.90;;;;;;10253926;29;20185;-79
2020/12/22 08:03:34;;;;;;;0.70;0.60;;;13.20;99.90;;;;;;10261525;28;20739;-78
2020/12/22 08:08:36;;;;;;;0.70;0.70;;;13.20;99.90;;;;;;10274021;28;20204;-78
2020/12/22 08:13:40;;;;;;;0.90;0.90;;;13.30;99.90;;;;;;10292828;28;20219;-79
2020/12/22 08:18:42;;;;;;;0.77;0.77;;;13.30;99.90;;;;;;10277609;28;20231;-78
2020/12/22 08:23:44;;;;;;;1.00;0.80;;;13.40;99.90;;;;;;10275303;28;20243;-79
2020/12/22 08:28:54;;;;;;;0.80;0.80;;;13.50;99.90;;;;;;10289015;28;20618;-78
2020/12/22 08:33:58;;;;;;;0.80;0.80;;;13.50;99.90;;;;;;10296251;28;20212;-77
2020/12/22 08:39:18;;;;;;;0.70;0.70;;;13.60;99.90;;;;;;10293763;28;20843;-79
2020/12/22 08:44:21;;;;;;;1.40;1.30;;;13.60;99.90;;;;;;10292207;28;20220;-77
2020/12/22 08:49:25;;;;;;;1.20;1.07;;;13.50;99.90;;;;;;10274500;28;20620;-79
2020/12/22 08:54:27;;;;;;;0.90;0.90;;;13.50;99.90;;;;;;10298656;28;20634;-77
2020/12/22 08:59:29;;;;;;;0.80;0.60;;;13.50;99.90;;;;;;10252332;29;20184;-78
2020/12/22 09:04:32;;;;;;;0.70;0.70;;;13.60;99.90;;;;;;10291708;28;20267;-78
2020/12/22 09:09:33;;;;;;;0.53;0.50;;;13.70;99.90;;;;;;10292456;28;20183;-81
2020/12/22 09:14:41;;;;;;;0.70;0.70;;;13.70;99.90;;;;;;10291989;28;20335;-79
2020/12/22 09:19:45;;;;;;;0.70;0.70;;;13.70;99.90;;;;;;10293151;28;20189;-79
2020/12/22 09:24:50;;;;;;;1.27;1.17;;;13.60;99.90;;;;;;10298363;28;20227;-78
2020/12/22 09:29:53;;;;;;;0.70;0.70;;;13.60;99.90;;;;;;10294244;28;20231;-79
2020/12/22 09:34:54;;;;;;;0.70;0.70;;;13.50;99.90;;;;;;10315357;28;20322;-79
2020/12/22 09:39:56;;;;;;;1.00;0.87;;;13.50;99.90;;;;;;10283714;28;20577;-77
2020/12/22 09:44:59;;;;;;;0.80;0.80;;;13.40;99.90;;;;;;10290703;28;20305;-77
2020/12/22 09:50:00;;;;;;;0.70;0.70;;;13.20;99.90;;;;;;10269094;28;20564;-81
2020/12/22 09:55:02;;;;;;;0.80;0.80;;;13.20;99.90;;;;;;10268429;28;20212;-78
2020/12/22 10:00:05;;;;;;;0.70;0.70;;;13.20;99.90;;;;;;10285685;28;20263;-79
2020/12/22 10:05:08;;;;;;;0.70;0.70;;;13.20;99.90;;;;;;10265042;28;20642;-78
2020/12/22 10:10:09;;;;;;;0.90;0.80;;;13.40;99.90;;;;;;10290357;28;20253;-79
2020/12/22 10:15:12;;;;;;;0.90;0.90;;;13.40;99.90;;;;;;10282456;28;20222;-79
2020/12/22 10:20:13;;;;;;;0.63;0.63;;;13.50;99.90;;;;;;10282221;28;20236;-81
2020/12/22 10:25:15;;;;;;;1.40;1.30;;;13.60;99.90;;;;;;10312083;28;20228;-79
2020/12/22 10:30:17;;;;;;;0.77;0.77;;;13.70;99.90;;;;;;10280352;28;20293;-81
2020/12/22 10:35:19;;;;;;;0.80;0.80;;;13.90;99.90;;;;;;10286691;28;20232;-78
2020/12/22 10:40:21;;;;;;;0.80;0.80;;;13.90;99.90;;;;;;10277789;28;20880;-82
2020/12/22 10:45:24;;;;;;;0.80;0.80;;;14.00;99.90;;;;;;10289934;28;20284;-82
2020/12/22 10:50:25;;;;;;;1.00;0.90;;;14.00;99.90;;;;;;10279614;28;20196;-81
2020/12/22 10:55:27;;;;;;;1.23;1.00;;;14.00;99.90;;;;;;10269795;28;20207;-82
2020/12/22 11:00:30;;;;;;;0.90;0.90;;;14.10;99.90;;;;;;10275686;28;20196;-79
2020/12/22 11:10:51;;;;;;;0.80;0.80;;;14.00;99.90;;;;;;10316574;28;20227;-81
2020/12/22 11:15:53;;;;;;;1.23;1.13;;;14.10;99.90;;;;;;10314888;28;20219;-81
2020/12/22 11:20:55;;;;;;;0.70;0.70;;;14.10;99.90;;;;;;10317494;28;20208;-81
2020/12/22 11:25:57;;;;;;;0.83;0.83;;;14.20;99.90;;;;;;10324983;28;20303;-82
2020/12/22 11:30:59;;;;;;;0.70;0.70;;;14.20;99.90;;;;;;10302299;28;20261;-81
2020/12/22 11:36:01;;;;;;;0.70;0.70;;;14.20;99.90;;;;;;10299950;28;20234;-81
2020/12/22 11:41:03;;;;;;;0.90;0.90;;;14.30;99.90;;;;;;10320703;28;20231;-82
2020/12/22 11:46:07;;;;;;;0.97;0.70;;;14.40;99.90;;;;;;10327382;28;20424;-82
2020/12/22 11:51:09;;;;;;;1.00;1.00;;;14.30;99.90;;;;;;10305309;28;20734;-82
2020/12/22 11:56:10;;;;;;;0.70;0.67;;;14.30;99.90;;;;;;10279853;28;20352;-82
2020/12/22 12:01:13;;;;;;;1.13;1.03;;;14.20;99.90;;;;;;10284565;28;20239;-81
2020/12/22 12:06:15;;;;;;;0.97;0.97;;;14.30;99.90;;;;;;10280324;28;20319;-78
2020/12/22 12:11:17;;;;;;;0.83;0.80;;;14.30;99.90;;;;;;10220952;28;20622;-81
2020/12/22 12:16:19;;;;;;;1.17;1.07;;;14.40;99.90;;;;;;10262043;28;20239;-81
2020/12/22 12:21:21;;;;;;;0.77;0.77;;;14.40;99.90;;;;;;10290396;28;20283;-79
2020/12/22 12:26:23;;;;;;;0.90;0.90;;;14.50;99.90;;;;;;10289777;28;20707;-79
2020/12/22 12:31:27;;;;;;;0.70;0.70;;;14.60;99.90;;;;;;10275755;28;20414;-80
2020/12/22 12:36:28;;;;;;;0.90;0.90;;;14.60;99.90;;;;;;10242129;29;20239;-79
2020/12/22 12:41:30;;;;;;;0.90;0.90;;;14.70;99.90;;;;;;10281012;28;20227;-80
2020/12/22 12:46:33;;;;;;;1.03;1.00;;;14.70;99.90;;;;;;10262275;28;20226;-80
2020/12/22 12:51:35;;;;;;;0.80;0.80;;;14.70;99.90;;;;;;10251702;28;20266;-80
2020/12/22 12:56:36;;;;;;;1.40;0.70;;;14.60;99.90;;;;;;10278783;28;20723;-79
2020/12/22 13:01:44;;;;;;;2.00;1.20;;;14.60;99.90;;;;;;10258577;28;20283;-80
2020/12/22 13:06:46;;;;;;;0.90;0.80;;;14.60;99.90;;;;;;10277671;28;20227;-80
2020/12/22 13:11:50;;;;;;;1.07;1.07;;;14.50;99.90;;;;;;10263072;28;20206;-79
2020/12/22 13:16:53;;;;;;;1.00;0.90;;;14.50;99.90;;;;;;10266851;28;20228;-79
2020/12/22 13:21:57;;;;;;;1.40;1.00;;;14.50;99.90;;;;;;10296487;28;20204;-80
2020/12/22 13:27:00;;;;;;;1.10;0.70;;;14.60;99.90;;;;;;10288067;28;20227;-80
2020/12/22 13:32:03;;;;;;;1.10;1.10;;;14.60;99.90;;;;;;10322064;28;20204;-80
2020/12/22 13:37:04;;;;;;;0.90;0.90;;;14.60;99.90;;;;;;10296048;28;20241;-80
2020/12/22 13:42:06;;;;;;;0.80;0.80;;;14.60;99.90;;;;;;10288642;28;20211;-80
2020/12/22 13:47:08;;;;;;;0.90;0.90;;;14.50;99.90;;;;;;10305713;28;20306;-80
2020/12/22 13:52:10;;;;;;;1.53;1.43;;;14.40;99.90;;;;;;10317069;28;20694;-80
2020/12/22 13:57:12;;;;;;;1.07;0.97;;;14.20;99.90;;;;;;10296018;28;20254;-80
2020/12/22 14:02:14;;;;;;;1.37;1.20;;;13.90;99.90;;;;;;10288930;28;20198;-80
2020/12/22 14:07:16;;;;;;;1.00;1.00;;;13.80;99.90;;;;;;10310743;28;20212;-79
2020/12/22 14:12:17;;;;;;;0.80;0.80;;;13.70;99.90;;;;;;10329119;28;20282;-79
2020/12/22 14:17:20;;;;;;;1.00;1.00;;;13.60;99.90;;;;;;10294133;28;20227;-80
2020/12/22 14:22:22;;;;;;;1.77;1.67;;;13.60;99.90;;;;;;10267609;28;20207;-80
2020/12/22 14:27:23;;;;;;;1.30;1.00;;;13.60;99.90;;;;;;10289820;28;20204;-80
2020/12/22 14:32:26;;;;;;;1.00;1.00;;;13.60;99.90;;;;;;10302492;28;20286;-80
2020/12/22 14:37:27;;;;;;;0.80;0.80;;;13.60;99.90;;;;;;10279359;28;20298;-80
2020/12/22 14:42:29;;;;;;;1.43;1.20;;;13.60;99.90;;;;;;10269819;28;20259;-80
2020/12/22 14:47:31;;;;;;;1.17;1.00;;;13.60;99.90;;;;;;10305488;28;20214;-79
2020/12/22 14:52:34;;;;;;;1.30;1.20;;;13.50;99.90;;;;;;10302059;28;20203;-79
2020/12/22 14:57:36;;;;;;;1.40;1.20;;;13.50;99.90;;;;;;10309328;28;20221;-79
2020/12/22 15:02:38;;;;;;;1.20;1.20;;;13.50;99.90;;;;;;10330384;28;20202;-80
2020/12/22 15:07:40;;;;;;;1.03;1.03;;;13.50;99.90;;;;;;10325232;28;20275;-79
2020/12/22 15:12:41;;;;;;;1.57;1.27;;;13.60;99.90;;;;;;10291945;28;20220;-79
2020/12/22 15:17:44;;;;;;;1.27;1.17;;;13.50;99.90;;;;;;10278788;28;20220;-82
2020/12/22 15:22:46;;;;;;;1.50;1.40;;;13.50;99.90;;;;;;10265717;28;20660;-82
2020/12/22 15:27:47;;;;;;;1.10;1.10;;;13.50;99.90;;;;;;10280357;28;20192;-82
2020/12/22 15:32:50;;;;;;;2.20;1.20;;;13.40;99.90;;;;;;10288034;28;20257;-81
2020/12/22 15:37:51;;;;;;;1.67;1.50;;;13.40;99.90;;;;;;10283121;28;20337;-82
2020/12/22 15:42:53;;;;;;;1.20;1.10;;;13.40;99.90;;;;;;10265266;28;20242;-82
2020/12/22 15:47:58;;;;;;;1.40;1.30;;;13.40;99.90;;;;;;10253480;28;20279;-82
2020/12/22 15:53:00;;;;;;;0.97;0.97;;;13.40;99.90;;;;;;10286004;28;20238;-80
2020/12/22 15:58:01;;;;;;;0.90;0.80;;;13.40;99.90;;;;;;10246793;28;20263;-82
2020/12/22 16:03:04;;;;;;;1.10;1.00;;;13.50;99.90;;;;;;10291468;28;20237;-79
2020/12/22 16:08:06;;;;;;;1.20;1.10;;;13.50;99.90;;;;;;10302539;28;20275;-82
2020/12/22 16:13:07;;;;;;;1.37;1.10;;;13.50;99.90;;;;;;10289879;28;20220;-82
2020/12/22 16:18:10;;;;;;;1.27;1.27;;;13.50;99.90;;;;;;10274102;28;20318;-81
2020/12/22 16:23:11;;;;;;;1.00;1.00;;;13.50;99.90;;;;;;10289242;28;20228;-81
2020/12/22 16:28:13;;;;;;;1.20;1.17;;;13.40;99.90;;;;;;10291101;28;20262;-82
2020/12/22 16:33:15;;;;;;;3.70;2.60;;;13.50;99.90;;;;;;10312589;28;20306;-82
2020/12/22 16:38:17;;;;;;;1.40;1.30;;;13.60;99.90;;;;;;10290187;28;20224;-82
2020/12/22 16:43:19;;;;;;;1.53;1.43;;;13.50;99.90;;;;;;10308492;28;20315;-82
2020/12/22 16:48:21;;;;;;;1.40;1.30;;;13.50;99.90;;;;;;10287488;28;20188;-81
2020/12/22 16:53:23;;;;;;;2.20;1.37;;;13.50;99.90;;;;;;10277136;28;21114;-81
2020/12/22 16:58:24;;;;;;;1.67;1.57;;;13.60;99.90;;;;;;10253376;28;20279;-81
2020/12/22 17:03:27;;;;;;;1.10;1.10;;;13.60;99.90;;;;;;10274012;28;20314;-80
2020/12/22 17:08:28;;;;;;;1.53;1.43;;;13.50;99.90;;;;;;10290166;28;20228;-81
2020/12/22 17:13:30;;;;;;;1.57;1.47;;;13.60;99.90;;;;;;10281719;28;20267;-80
2020/12/22 17:18:33;;;;;;;1.93;1.20;;;13.60;99.90;;;;;;10275785;28;20216;-80
2020/12/22 17:23:34;;;;;;;2.50;2.30;;;13.60;99.90;;;;;;10266159;28;20600;-80
2020/12/22 17:28:36;;;;;;;2.00;1.90;;;13.70;99.90;;;;;;10279814;28;20204;-80
2020/12/22 17:33:38;;;;;;;1.83;1.57;;;13.80;99.90;;;;;;10263322;28;20223;-81
2020/12/22 17:38:40;;;;;;;1.50;1.40;;;13.80;99.90;;;;;;10301364;28;20330;-80
2020/12/22 17:43:42;;;;;;;1.60;1.50;;;13.80;99.90;;;;;;10286990;28;20226;-80
2020/12/22 17:48:44;;;;;;;1.50;1.40;;;13.80;99.90;;;;;;10269288;28;20193;-81
2020/12/22 17:53:46;;;;;;;1.50;1.40;;;13.80;99.90;;;;;;10274614;28;20791;-81
2020/12/22 17:58:48;;;;;;;1.90;1.80;;;13.80;99.90;;;;;;10279133;28;20618;-81
2020/12/22 18:03:50;;;;;;;1.73;1.63;;;13.80;99.90;;;;;;10275360;28;20258;-80
2020/12/22 18:08:52;;;;;;;1.80;1.70;;;13.80;99.90;;;;;;10271930;28;20261;-81
2020/12/22 18:13:55;;;;;;;1.50;1.40;;;13.70;99.90;;;;;;10292594;28;20284;-81
2020/12/22 18:18:57;;;;;;;1.90;1.80;;;13.70;99.90;;;;;;10291497;28;20228;-80
2020/12/22 18:23:59;;;;;;;1.90;1.80;;;13.70;99.90;;;;;;10263967;28;20227;-80
2020/12/22 18:29:01;;;;;;;1.50;1.40;;;13.70;99.90;;;;;;10262149;28;20259;-81
2020/12/22 18:34:03;;;;;;;1.73;1.63;;;13.80;99.90;;;;;;10295748;28;20292;-80
2020/12/22 18:39:05;;;;;;;2.13;2.03;;;13.80;99.90;;;;;;10273537;28;20308;-80
2020/12/22 18:44:06;;;;;;;1.70;1.60;;;13.80;99.90;;;;;;10261619;28;20241;-81
2020/12/22 18:49:09;;;;;;;1.53;1.43;;;13.80;99.90;;;;;;10286357;28;20200;-80
2020/12/22 18:54:10;;;;;;;1.50;1.40;;;13.90;99.90;;;;;;10277578;28;20317;-80
2020/12/22 18:59:12;;;;;;;1.90;1.80;;;13.90;99.90;;;;;;10282379;28;20631;-79
2020/12/22 19:04:14;;;;;;;1.57;1.47;;;13.90;99.90;;;;;;10258994;28;20239;-80
2020/12/22 19:09:16;;;;;;;1.50;1.40;;;13.90;99.90;;;;;;10264214;28;20566;-79
2020/12/22 19:14:18;;;;;;;1.77;1.67;;;13.90;99.90;;;;;;10253615;28;20270;-81
2020/12/22 19:19:20;;;;;;;1.47;1.37;;;13.90;99.90;;;;;;10256997;28;20239;-82
2020/12/22 19:24:22;;;;;;;1.50;1.40;;;13.90;99.90;;;;;;10275582;28;20231;-80
2020/12/22 19:29:23;;;;;;;1.30;1.30;;;13.80;99.90;;;;;;10298456;28;20206;-80
2020/12/22 19:34:26;;;;;;;1.97;1.77;;;13.70;99.90;;;;;;10290944;28;20246;-80
2020/12/22 19:39:28;;;;;;;1.73;1.63;;;13.70;99.90;;;;;;10285417;28;20227;-80
2020/12/22 19:44:29;;;;;;;1.53;1.43;;;13.70;99.90;;;;;;10267734;28;20231;-80
2020/12/22 19:49:32;;;;;;;1.40;1.40;;;13.70;99.90;;;;;;10282317;28;20287;-81
2020/12/22 19:54:33;;;;;;;1.40;1.30;;;13.70;99.90;;;;;;10285228;28;20301;-80
2020/12/22 19:59:35;;;;;;;1.27;1.27;;;13.80;99.90;;;;;;10246773;28;20224;-80
2020/12/22 20:04:37;;;;;;;1.50;1.40;;;13.80;99.90;;;;;;10272397;28;20591;-80
2020/12/22 20:09:39;;;;;;;1.63;1.53;;;13.80;99.90;;;;;;10264444;28;20296;-80
2020/12/22 20:14:40;;;;;;;1.47;1.37;;;13.90;99.90;;;;;;10245447;28;20228;-81
2020/12/22 20:19:43;;;;;;;2.20;2.00;;;13.90;99.90;;;;;;10284724;28;20193;-80
2020/12/22 20:24:44;;;;;;;2.17;1.97;;;13.90;99.90;;;;;;10285627;28;20310;-81
2020/12/22 20:29:46;;;;;;;2.00;1.53;;;14.00;99.90;;;;;;10264567;28;20238;-80
2020/12/22 20:34:49;;;;;;;1.60;1.50;;;14.00;99.90;;;;;;10284496;28;20322;-80
2020/12/22 20:39:50;;;;;;;2.17;2.03;;;14.10;99.90;;;;;;10292676;28;20661;-80
2020/12/22 20:44:52;;;;;;;1.70;1.60;;;14.10;99.90;;;;;;10284134;28;20306;-79
2020/12/22 20:49:54;;;;;;;1.60;1.53;;;14.10;99.90;;;;;;10289774;28;20613;-80
2020/12/22 20:54:56;;;;;;;1.50;1.40;;;14.20;99.90;;;;;;10255806;28;20280;-81
2020/12/22 20:59:58;;;;;;;1.50;1.40;;;14.20;99.90;;;;;;10273253;28;20254;-80
2020/12/22 21:05:00;;;;;;;1.60;1.50;;;14.10;99.90;;;;;;10271428;28;20216;-80
2020/12/22 21:10:02;;;;;;;1.53;1.43;;;14.20;99.90;;;;;;10271997;28;20228;-81
2020/12/22 21:15:04;;;;;;;1.60;1.50;;;14.10;99.90;;;;;;10276057;28;20623;-81
2020/12/22 21:20:07;;;;;;;1.80;1.70;;;14.10;99.90;;;;;;10289407;28;20212;-81
2020/12/22 21:25:09;;;;;;;1.20;1.10;;;14.00;99.90;;;;;;10267347;28;20228;-81
2020/12/22 21:30:10;;;;;;;1.40;1.20;;;13.90;99.90;;;;;;10247152;28;20201;-80
2020/12/22 21:35:13;;;;;;;1.53;1.43;;;13.90;99.90;;;;;;10276477;28;20231;-80
2020/12/22 21:40:15;;;;;;;1.33;1.23;;;13.90;99.90;;;;;;10259089;28;20820;-80
2020/12/22 21:45:17;;;;;;;1.73;1.63;;;13.90;99.90;;;;;;10224382;28;20223;-81
2020/12/22 21:50:19;;;;;;;1.73;1.63;;;14.00;99.90;;;;;;10258609;28;20212;-81
2020/12/22 21:55:21;;;;;;;1.60;1.50;;;13.90;99.90;;;;;;10265017;28;20231;-80
2020/12/22 22:00:23;;;;;;;1.47;1.33;;;13.90;99.90;;;;;;10277901;28;20211;-80
2020/12/22 22:05:25;;;;;;;1.60;1.50;;;13.90;99.90;;;;;;10252864;28;20597;-80
2020/12/22 22:10:27;;;;;;;5.57;1.50;;;13.80;99.90;;;;;;10270025;28;20196;-80
2020/12/22 22:15:28;;;;;;;1.60;1.50;;;13.80;99.90;;;;;;10251828;28;20275;-80
2020/12/22 22:20:31;;;;;;;1.97;1.87;;;13.80;99.90;;;;;;10253565;28;20200;-80
2020/12/22 22:25:33;;;;;;;1.57;1.47;;;13.80;99.90;;;;;;10234534;28;20228;-81
2020/12/22 22:30:34;;;;;;;2.17;1.40;;;13.80;99.90;;;;;;10281294;28;20203;-79
2020/12/22 22:35:37;;;;;;;1.47;1.37;;;13.70;99.90;;;;;;10273050;28;20224;-81
2020/12/22 22:40:39;;;;;;;1.40;1.33;;;13.60;99.90;;;;;;10290754;28;20211;-79
2020/12/22 22:45:40;;;;;;;2.00;1.30;;;13.60;99.90;;;;;;10255915;28;20227;-79
2020/12/22 22:50:44;;;;;;;1.20;1.10;;;13.60;99.90;;;;;;10273172;28;20196;-79
2020/12/22 22:55:47;;;;;;;1.30;1.20;;;13.60;99.90;;;;;;10305170;28;20229;-78
2020/12/22 23:00:49;;;;;;;1.43;1.33;;;13.60;99.90;;;;;;10315002;28;20671;-80
2020/12/22 23:05:51;;;;;;;1.10;1.10;;;13.50;99.90;;;;;;10330609;28;20203;-79
2020/12/22 23:10:53;;;;;;;1.33;1.30;;;13.50;99.90;;;;;;10288485;28;20294;-80
2020/12/22 23:15:57;;;;;;;1.10;1.00;;;13.60;99.90;;;;;;10278850;28;20301;-80
2020/12/22 23:21:00;;;;;;;1.30;1.30;;;13.60;99.90;;;;;;10304095;28;20203;-80
2020/12/22 23:26:03;;;;;;;1.50;1.50;;;13.50;99.90;;;;;;10255256;28;20260;-81
2020/12/22 23:31:05;;;;;;;1.80;1.70;;;13.60;99.90;;;;;;10249978;29;20204;-79
2020/12/22 23:36:11;;;;;;;1.20;1.20;;;13.60;99.90;;;;;;10296685;28;20629;-80
2020/12/22 23:41:19;;;;;;;1.10;1.10;;;13.60;99.90;;;;;;10336235;28;20203;-80
2020/12/22 23:46:21;;;;;;;1.20;1.10;;;13.60;99.90;;;;;;10339714;28;20286;-78
2020/12/22 23:51:26;;;;;;;1.20;1.20;;;13.60;99.90;;;;;;10330958;28;20281;-80
2020/12/22 23:56:28;;;;;;;1.60;1.50;;;13.70;99.90;;;;;;10320253;28;20456;-80
